sensor_id;sensor_type;location;lat;lon;timestamp;temperature;humidity
21590;DHT22;10957;50.968;6.828;2023-06-04T00:02:56;12.10;1.00
21590;DHT22;10957;50.968;6.828;2023-06-04T00:07:58;12.20;1.00
21590;DHT22;10957;50.968;6.828;2023-06-04T00:13:00;12.00;1.00
21590;DHT22;10957;50.968;6.828;2023-06-04T00:18:01;12.00;1.00
21590;DHT22;10957;50.968;6.828;2023-06-04T00:23:02;11.60;1.00
21590;DHT22;10957;50.968;6.828;2023-06-04T00:28:04;11.40;1.00
21590;DHT22;10957;50.968;6.828;2023-06-04T00:33:05;11.40;1.00
21590;DHT22;10957;50.968;6.828;2023-06-04T00:38:06;11.40;1.00
21590;DHT22;10957;50.968;6.828;2023-06-04T00:43:08;11.40;1.00
21590;DHT22;10957;50.968;6.828;2023-06-04T00:48:09;11.20;1.00
21590;DHT22;10957;50.968;6.828;2023-06-04T00:53:11;10.90;1.00
21590;DHT22;10957;50.968;6.828;2023-06-04T00:58:12;10.80;1.00
21590;DHT22;10957;50.968;6.828;2023-06-04T01:03:18;10.80;1.00
21590;DHT22;10957;50.968;6.828;2023-06-04T01:08:20;10.50;1.00
21590;DHT22;10957;50.968;6.828;2023-06-04T01:13:22;10.80;1.00
21590;DHT22;10957;50.968;6.828;2023-06-04T01:18:27;10.60;1.00
21590;DHT22;10957;50.968;6.828;2023-06-04T01:23:51;10.60;1.00
21590;DHT22;10957;50.968;6.828;2023-06-04T01:28:59;10.60;1.00
21590;DHT22;10957;50.968;6.828;2023-06-04T01:34:01;10.50;1.00
21590;DHT22;10957;50.968;6.828;2023-06-04T01:39:03;10.30;1.00
21590;DHT22;10957;50.968;6.828;2023-06-04T01:44:04;10.40;1.00
21590;DHT22;10957;50.968;6.828;2023-06-04T01:49:05;10.30;1.00
21590;DHT22;10957;50.968;6.828;2023-06-04T01:54:07;10.50;1.00
21590;DHT22;10957;50.968;6.828;2023-06-04T01:59:08;10.00;1.00
21590;DHT22;10957;50.968;6.828;2023-06-04T02:04:13;10.10;1.00
21590;DHT22;10957;50.968;6.828;2023-06-04T02:09:14;10.00;1.00
21590;DHT22;10957;50.968;6.828;2023-06-04T02:14:16;9.80;1.00
21590;DHT22;10957;50.968;6.828;2023-06-04T02:19:17;9.70;1.00
21590;DHT22;10957;50.968;6.828;2023-06-04T02:24:20;9.90;1.00
21590;DHT22;10957;50.968;6.828;2023-06-04T02:29:22;9.70;1.00
21590;DHT22;10957;50.968;6.828;2023-06-04T02:34:23;9.60;1.00
21590;DHT22;10957;50.968;6.828;2023-06-04T02:39:26;9.50;1.00
21590;DHT22;10957;50.968;6.828;2023-06-04T02:44:27;9.50;1.00
21590;DHT22;10957;50.968;6.828;2023-06-04T02:49:30;9.30;1.00
21590;DHT22;10957;50.968;6.828;2023-06-04T02:54:32;9.30;1.00
21590;DHT22;10957;50.968;6.828;2023-06-04T02:59:33;9.30;1.00
21590;DHT22;10957;50.968;6.828;2023-06-04T03:04:35;9.20;1.00
21590;DHT22;10957;50.968;6.828;2023-06-04T03:09:36;9.10;1.00
21590;DHT22;10957;50.968;6.828;2023-06-04T03:14:38;9.00;1.00
21590;DHT22;10957;50.968;6.828;2023-06-04T03:19:41;8.90;1.00
21590;DHT22;10957;50.968;6.828;2023-06-04T03:24:42;9.00;1.00
21590;DHT22;10957;50.968;6.828;2023-06-04T03:29:44;9.00;1.00
21590;DHT22;10957;50.968;6.828;2023-06-04T03:34:47;8.80;17.80
21590;DHT22;10957;50.968;6.828;2023-06-04T03:39:48;8.80;14.70
21590;DHT22;10957;50.968;6.828;2023-06-04T03:44:52;8.90;10.30
21590;DHT22;10957;50.968;6.828;2023-06-04T03:49:55;8.80;23.10
21590;DHT22;10957;50.968;6.828;2023-06-04T03:54:57;8.80;40.00
21590;DHT22;10957;50.968;6.828;2023-06-04T03:59:58;8.60;39.10
21590;DHT22;10957;50.968;6.828;2023-06-04T04:05:00;8.90;53.30
21590;DHT22;10957;50.968;6.828;2023-06-04T04:10:03;8.90;41.60
21590;DHT22;10957;50.968;6.828;2023-06-04T04:15:07;8.80;45.50
21590;DHT22;10957;50.968;6.828;2023-06-04T04:20:10;9.00;71.50
21590;DHT22;10957;50.968;6.828;2023-06-04T04:25:17;9.00;55.70
21590;DHT22;10957;50.968;6.828;2023-06-04T04:30:19;8.90;57.70
21590;DHT22;10957;50.968;6.828;2023-06-04T04:35:25;9.00;52.30
21590;DHT22;10957;50.968;6.828;2023-06-04T04:40:30;9.30;57.00
21590;DHT22;10957;50.968;6.828;2023-06-04T04:45:32;9.20;61.80
21590;DHT22;10957;50.968;6.828;2023-06-04T04:50:35;9.60;69.10
21590;DHT22;10957;50.968;6.828;2023-06-04T04:55:38;10.00;66.30
21590;DHT22;10957;50.968;6.828;2023-06-04T05:00:39;10.00;58.20
21590;DHT22;10957;50.968;6.828;2023-06-04T05:05:40;10.30;77.60
21590;DHT22;10957;50.968;6.828;2023-06-04T05:10:42;10.40;81.70
21590;DHT22;10957;50.968;6.828;2023-06-04T05:15:44;10.30;83.80
21590;DHT22;10957;50.968;6.828;2023-06-04T05:20:50;11.00;97.80
21590;DHT22;10957;50.968;6.828;2023-06-04T05:25:52;10.70;90.40
21590;DHT22;10957;50.968;6.828;2023-06-04T05:30:54;11.10;86.60
21590;DHT22;10957;50.968;6.828;2023-06-04T05:36:03;11.50;90.00
21590;DHT22;10957;50.968;6.828;2023-06-04T05:41:09;11.60;89.60
21590;DHT22;10957;50.968;6.828;2023-06-04T05:46:13;11.90;93.00
21590;DHT22;10957;50.968;6.828;2023-06-04T05:51:16;11.90;92.10
21590;DHT22;10957;50.968;6.828;2023-06-04T05:56:17;12.60;89.20
21590;DHT22;10957;50.968;6.828;2023-06-04T06:01:20;12.70;81.40
21590;DHT22;10957;50.968;6.828;2023-06-04T06:06:21;13.40;57.20
21590;DHT22;10957;50.968;6.828;2023-06-04T06:11:23;13.70;80.20
21590;DHT22;10957;50.968;6.828;2023-06-04T06:16:25;14.30;81.00
21590;DHT22;10957;50.968;6.828;2023-06-04T06:21:26;14.80;75.70
21590;DHT22;10957;50.968;6.828;2023-06-04T06:26:28;15.50;64.00
21590;DHT22;10957;50.968;6.828;2023-06-04T06:31:33;16.10;40.40
21590;DHT22;10957;50.968;6.828;2023-06-04T06:36:34;16.60;13.50
21590;DHT22;10957;50.968;6.828;2023-06-04T06:41:37;17.10;1.70
21590;DHT22;10957;50.968;6.828;2023-06-04T06:46:41;17.30;1.00
21590;DHT22;10957;50.968;6.828;2023-06-04T06:51:42;17.90;1.00
21590;DHT22;10957;50.968;6.828;2023-06-04T06:56:43;18.30;1.00
21590;DHT22;10957;50.968;6.828;2023-06-04T07:01:45;19.30;1.00
21590;DHT22;10957;50.968;6.828;2023-06-04T07:06:46;19.80;1.00
21590;DHT22;10957;50.968;6.828;2023-06-04T07:11:47;19.60;1.00
21590;DHT22;10957;50.968;6.828;2023-06-04T07:16:48;19.80;1.00
21590;DHT22;10957;50.968;6.828;2023-06-04T07:21:50;20.60;1.00
21590;DHT22;10957;50.968;6.828;2023-06-04T07:26:52;21.50;1.00
21590;DHT22;10957;50.968;6.828;2023-06-04T07:31:53;21.40;1.00
21590;DHT22;10957;50.968;6.828;2023-06-04T07:36:54;22.10;1.00
21590;DHT22;10957;50.968;6.828;2023-06-04T07:41:56;21.50;1.00
21590;DHT22;10957;50.968;6.828;2023-06-04T07:46:57;21.80;1.00
21590;DHT22;10957;50.968;6.828;2023-06-04T07:51:58;22.70;1.00
21590;DHT22;10957;50.968;6.828;2023-06-04T07:56:59;22.40;1.00
21590;DHT22;10957;50.968;6.828;2023-06-04T08:02:01;22.90;1.00
21590;DHT22;10957;50.968;6.828;2023-06-04T08:07:02;22.90;1.00
21590;DHT22;10957;50.968;6.828;2023-06-04T08:12:04;23.30;1.00
21590;DHT22;10957;50.968;6.828;2023-06-04T08:17:05;24.10;1.00
21590;DHT22;10957;50.968;6.828;2023-06-04T08:22:21;23.70;1.00
21590;DHT22;10957;50.968;6.828;2023-06-04T08:27:35;23.90;1.00
21590;DHT22;10957;50.968;6.828;2023-06-04T08:32:50;23.80;1.00
21590;DHT22;10957;50.968;6.828;2023-06-04T08:38:12;24.10;1.00
21590;DHT22;10957;50.968;6.828;2023-06-04T08:43:13;23.60;1.00
21590;DHT22;10957;50.968;6.828;2023-06-04T08:48:16;24.60;1.00
21590;DHT22;10957;50.968;6.828;2023-06-04T08:53:19;24.20;1.00
21590;DHT22;10957;50.968;6.828;2023-06-04T08:58:21;24.90;1.00
21590;DHT22;10957;50.968;6.828;2023-06-04T09:03:23;25.10;1.00
21590;DHT22;10957;50.968;6.828;2023-06-04T09:08:27;23.50;1.00
21590;DHT22;10957;50.968;6.828;2023-06-04T09:13:33;24.30;1.00
21590;DHT22;10957;50.968;6.828;2023-06-04T09:18:35;24.40;1.00
21590;DHT22;10957;50.968;6.828;2023-06-04T09:23:46;24.30;1.00
21590;DHT22;10957;50.968;6.828;2023-06-04T09:28:48;25.20;1.00
21590;DHT22;10957;50.968;6.828;2023-06-04T09:33:49;25.20;1.00
21590;DHT22;10957;50.968;6.828;2023-06-04T09:38:51;25.20;1.00
21590;DHT22;10957;50.968;6.828;2023-06-04T09:44:03;25.10;1.00
21590;DHT22;10957;50.968;6.828;2023-06-04T09:49:05;24.40;1.00
21590;DHT22;10957;50.968;6.828;2023-06-04T09:54:06;24.40;1.00
21590;DHT22;10957;50.968;6.828;2023-06-04T09:59:09;24.90;1.00
21590;DHT22;10957;50.968;6.828;2023-06-04T10:04:13;24.90;1.00
21590;DHT22;10957;50.968;6.828;2023-06-04T10:09:16;25.40;1.00
21590;DHT22;10957;50.968;6.828;2023-06-04T10:14:22;24.80;1.00
21590;DHT22;10957;50.968;6.828;2023-06-04T10:19:27;24.70;1.00
21590;DHT22;10957;50.968;6.828;2023-06-04T10:24:29;24.90;1.00
21590;DHT22;10957;50.968;6.828;2023-06-04T10:29:30;24.20;1.00
21590;DHT22;10957;50.968;6.828;2023-06-04T10:34:32;24.40;1.00
21590;DHT22;10957;50.968;6.828;2023-06-04T10:39:34;24.50;1.00
21590;DHT22;10957;50.968;6.828;2023-06-04T10:44:47;24.30;1.00
21590;DHT22;10957;50.968;6.828;2023-06-04T10:49:53;24.50;1.00
21590;DHT22;10957;50.968;6.828;2023-06-04T10:55:06;24.20;1.00
21590;DHT22;10957;50.968;6.828;2023-06-04T11:00:09;24.20;1.00
21590;DHT22;10957;50.968;6.828;2023-06-04T11:05:11;24.20;1.00
21590;DHT22;10957;50.968;6.828;2023-06-04T11:10:13;23.90;1.00
21590;DHT22;10957;50.968;6.828;2023-06-04T11:15:16;23.90;1.00
21590;DHT22;10957;50.968;6.828;2023-06-04T11:20:19;23.90;1.00
21590;DHT22;10957;50.968;6.828;2023-06-04T11:25:21;24.10;1.00
21590;DHT22;10957;50.968;6.828;2023-06-04T11:30:23;24.10;1.00
21590;DHT22;10957;50.968;6.828;2023-06-04T11:35:25;24.30;1.00
21590;DHT22;10957;50.968;6.828;2023-06-04T11:40:26;24.10;1.00
21590;DHT22;10957;50.968;6.828;2023-06-04T17:01:16;24.30;1.00
21590;DHT22;10957;50.968;6.828;2023-06-04T17:06:19;24.30;1.00
21590;DHT22;10957;50.968;6.828;2023-06-04T17:11:21;24.40;1.00
21590;DHT22;10957;50.968;6.828;2023-06-04T17:16:22;24.30;1.00
21590;DHT22;10957;50.968;6.828;2023-06-04T17:21:26;24.20;1.00
21590;DHT22;10957;50.968;6.828;2023-06-04T17:26:27;24.10;1.00
21590;DHT22;10957;50.968;6.828;2023-06-04T17:31:28;24.00;1.00
21590;DHT22;10957;50.968;6.828;2023-06-04T17:36:29;23.90;1.00
21590;DHT22;10957;50.968;6.828;2023-06-04T17:41:31;23.70;1.00
21590;DHT22;10957;50.968;6.828;2023-06-04T17:46:32;23.60;1.00
21590;DHT22;10957;50.968;6.828;2023-06-04T17:51:33;23.40;1.00
21590;DHT22;10957;50.968;6.828;2023-06-04T17:56:35;23.20;1.00
21590;DHT22;10957;50.968;6.828;2023-06-04T18:01:39;23.10;1.00
21590;DHT22;10957;50.968;6.828;2023-06-04T18:06:41;23.10;1.00
21590;DHT22;10957;50.968;6.828;2023-06-04T18:11:42;23.00;1.00
21590;DHT22;10957;50.968;6.828;2023-06-04T18:16:44;22.90;1.00
21590;DHT22;10957;50.968;6.828;2023-06-04T18:21:45;22.80;1.00
21590;DHT22;10957;50.968;6.828;2023-06-04T18:26:47;22.60;1.00
21590;DHT22;10957;50.968;6.828;2023-06-04T18:31:48;22.40;1.00
21590;DHT22;10957;50.968;6.828;2023-06-04T18:36:50;22.20;1.00
21590;DHT22;10957;50.968;6.828;2023-06-04T18:41:54;22.10;1.00
21590;DHT22;10957;50.968;6.828;2023-06-04T18:46:56;22.00;1.00
21590;DHT22;10957;50.968;6.828;2023-06-04T18:51:57;21.80;1.00
21590;DHT22;10957;50.968;6.828;2023-06-04T18:57:00;21.60;1.00
21590;DHT22;10957;50.968;6.828;2023-06-04T19:02:02;21.60;1.00
21590;DHT22;10957;50.968;6.828;2023-06-04T19:07:03;21.40;1.00
21590;DHT22;10957;50.968;6.828;2023-06-04T19:12:05;21.30;1.00
21590;DHT22;10957;50.968;6.828;2023-06-04T19:17:06;21.20;1.00
21590;DHT22;10957;50.968;6.828;2023-06-04T19:22:09;21.10;1.00
21590;DHT22;10957;50.968;6.828;2023-06-04T19:27:10;21.00;1.00
21590;DHT22;10957;50.968;6.828;2023-06-04T19:32:11;20.90;1.00
21590;DHT22;10957;50.968;6.828;2023-06-04T19:37:13;20.70;1.00
21590;DHT22;10957;50.968;6.828;2023-06-04T19:42:14;20.50;1.00
21590;DHT22;10957;50.968;6.828;2023-06-04T19:47:15;20.30;1.00
21590;DHT22;10957;50.968;6.828;2023-06-04T19:52:17;20.10;1.00
21590;DHT22;10957;50.968;6.828;2023-06-04T19:57:18;19.90;1.00
21590;DHT22;10957;50.968;6.828;2023-06-04T20:02:20;19.70;1.00
21590;DHT22;10957;50.968;6.828;2023-06-04T20:07:21;19.60;1.00
21590;DHT22;10957;50.968;6.828;2023-06-04T20:12:23;19.30;1.00
21590;DHT22;10957;50.968;6.828;2023-06-04T20:17:24;19.00;1.00
21590;DHT22;10957;50.968;6.828;2023-06-04T20:22:25;18.60;1.00
21590;DHT22;10957;50.968;6.828;2023-06-04T20:27:27;18.40;1.00
21590;DHT22;10957;50.968;6.828;2023-06-04T20:32:28;18.30;1.00
21590;DHT22;10957;50.968;6.828;2023-06-04T20:37:29;18.10;1.00
21590;DHT22;10957;50.968;6.828;2023-06-04T20:42:30;18.00;1.00
21590;DHT22;10957;50.968;6.828;2023-06-04T20:47:32;17.60;1.00
21590;DHT22;10957;50.968;6.828;2023-06-04T20:52:33;17.40;1.00
21590;DHT22;10957;50.968;6.828;2023-06-04T20:57:35;17.30;1.00
21590;DHT22;10957;50.968;6.828;2023-06-04T21:02:36;17.00;1.00
21590;DHT22;10957;50.968;6.828;2023-06-04T21:07:37;16.80;1.00
21590;DHT22;10957;50.968;6.828;2023-06-04T21:12:38;16.60;1.00
21590;DHT22;10957;50.968;6.828;2023-06-04T21:17:40;16.30;1.00
21590;DHT22;10957;50.968;6.828;2023-06-04T21:22:41;16.10;1.00
21590;DHT22;10957;50.968;6.828;2023-06-04T21:27:42;16.00;1.00
21590;DHT22;10957;50.968;6.828;2023-06-04T21:32:44;15.90;1.00
21590;DHT22;10957;50.968;6.828;2023-06-04T21:37:46;15.80;1.00
21590;DHT22;10957;50.968;6.828;2023-06-04T21:42:47;15.70;1.00
21590;DHT22;10957;50.968;6.828;2023-06-04T21:47:49;15.60;1.00
21590;DHT22;10957;50.968;6.828;2023-06-04T21:52:50;15.40;1.00
21590;DHT22;10957;50.968;6.828;2023-06-04T21:57:51;15.30;1.00
21590;DHT22;10957;50.968;6.828;2023-06-04T22:02:53;15.10;1.00
21590;DHT22;10957;50.968;6.828;2023-06-04T22:07:54;15.00;1.00
21590;DHT22;10957;50.968;6.828;2023-06-04T22:12:55;14.80;1.00
21590;DHT22;10957;50.968;6.828;2023-06-04T22:17:57;14.70;1.00
21590;DHT22;10957;50.968;6.828;2023-06-04T22:22:58;14.50;1.00
21590;DHT22;10957;50.968;6.828;2023-06-04T22:27:59;14.50;1.00
21590;DHT22;10957;50.968;6.828;2023-06-04T22:33:00;14.30;1.00
21590;DHT22;10957;50.968;6.828;2023-06-04T22:38:02;14.20;1.00
21590;DHT22;10957;50.968;6.828;2023-06-04T22:43:03;14.10;1.00
21590;DHT22;10957;50.968;6.828;2023-06-04T22:48:05;14.10;1.00
21590;DHT22;10957;50.968;6.828;2023-06-04T22:53:06;14.00;1.00
21590;DHT22;10957;50.968;6.828;2023-06-04T22:58:15;13.90;1.00
21590;DHT22;10957;50.968;6.828;2023-06-04T23:03:16;13.80;1.00
21590;DHT22;10957;50.968;6.828;2023-06-04T23:08:18;13.70;1.00
21590;DHT22;10957;50.968;6.828;2023-06-04T23:13:19;13.60;1.00
21590;DHT22;10957;50.968;6.828;2023-06-04T23:18:20;13.50;1.00
21590;DHT22;10957;50.968;6.828;2023-06-04T23:23:22;13.50;1.00
21590;DHT22;10957;50.968;6.828;2023-06-04T23:28:24;13.40;1.00
21590;DHT22;10957;50.968;6.828;2023-06-04T23:33:25;13.40;1.00
21590;DHT22;10957;50.968;6.828;2023-06-04T23:38:27;13.40;1.00
21590;DHT22;10957;50.968;6.828;2023-06-04T23:43:28;13.30;1.00
21590;DHT22;10957;50.968;6.828;2023-06-04T23:48:29;13.20;1.00
21590;DHT22;10957;50.968;6.828;2023-06-04T23:53:31;13.00;1.00
21590;DHT22;10957;50.968;6.828;2023-06-04T23:58:32;12.90;1.00
